Nearby METAR Reports

 

NZAA - Auckland Intl Ar, New Zealand
Distance from station: SW 18km
Updated: 19/12/2018 18:30
Few Clouds
Few Clouds
 Wind from WNW
Wind: WNW 22 km/h
Temperature: 21°C
Dew Point: 15°C
Humidity: 69%
Barometer: 1006 hPa
Clouds: Few Clouds
Visibility: 10 km
Cloud details: Few Clouds 975 m
2018/12/19 05:30 NZAA 190530Z AUTO 29012KT 260V330 9999 FEW032/// 21/15 Q1006 NOSIG
NZWN - Wellington Intl, New Zealand
Distance from station: S 493km
Updated: 19/12/2018 18:30
Light rain, Mostly cloudy
Light rain, Mostly cloudy
 Wind from N
Wind: N 20 km/h
Temperature: 16°C
Dew Point: 15°C
Humidity: 94%
Barometer: 1003 hPa
Summary: Light rain
Clouds: Mostly cloudy
Visibility: 10 km
Cloud details: Mostly cloudy 610 m
Mostly cloudy 1981 m
2018/12/19 05:30 NZWN 190530Z AUTO 01011KT 9999 -RA BKN020/// BKN065/// 16/15 Q1003 TEMPO 5000 RA BKN014
 
NZCH - Christchurch Int, New Zealand
Distance from station: SSW 759km
Updated: 19/12/2018 18:30
Mostly cloudy
Mostly cloudy
 Wind from SSW
Wind: SSW 13 km/h
Temperature: 12°C
Dew Point: 10°C
Humidity: 88%
Barometer: 1008 hPa
Clouds: Mostly cloudy
Visibility: 10 km
Cloud details: Mostly cloudy 366 m
2018/12/19 05:30 NZCH 190530Z AUTO 20007KT 9999 BKN012/// 12/10 Q1008 REDZ BECMG 9999 TEMPO 4000 RADZ BKN008
YSNF - Norfolk Island A, Australia
Distance from station: NW 1091km
Updated: 19/12/2018 18:30
Partly cloudy
Partly cloudy
 Wind from WSW
Wind: WSW 13 km/h
Temperature: 23°C
Dew Point: 15°C
Humidity: 61%
Barometer: 1014 hPa
Clouds: Partly cloudy
Visibility: 10 km
Cloud details: Partly cloudy 792 m
Partly cloudy 1036 m
2018/12/19 05:30 YSNF 190530Z AUTO 24007KT 9999 // SCT026 SCT034 23/15 Q1014